sensor_id;sensor_type;location;lat;lon;timestamp;pressure;altitude;pressure_sealevel;temperature;humidity
18509;BME280;9383;50.928;12.116;2023-02-03T00:01:54;99513.31;;;1.54;100.00
18509;BME280;9383;50.928;12.116;2023-02-03T00:04:21;99499.38;;;1.55;100.00
18509;BME280;9383;50.928;12.116;2023-02-03T00:06:47;99489.81;;;1.56;100.00
18509;BME280;9383;50.928;12.116;2023-02-03T00:09:14;99496.84;;;1.61;100.00
18509;BME280;9383;50.928;12.116;2023-02-03T00:11:41;99496.84;;;1.61;100.00
18509;BME280;9383;50.928;12.116;2023-02-03T00:14:08;99486.41;;;1.61;100.00
18509;BME280;9383;50.928;12.116;2023-02-03T00:16:35;99484.66;;;1.62;100.00
18509;BME280;9383;50.928;12.116;2023-02-03T00:19:01;99488.13;;;1.61;100.00
18509;BME280;9383;50.928;12.116;2023-02-03T00:21:28;99478.59;;;1.64;100.00
18509;BME280;9383;50.928;12.116;2023-02-03T00:23:54;99468.16;;;1.66;100.00
18509;BME280;9383;50.928;12.116;2023-02-03T00:26:21;99466.44;;;1.68;100.00
18509;BME280;9383;50.928;12.116;2023-02-03T00:28:49;99451.59;;;1.68;100.00
18509;BME280;9383;50.928;12.116;2023-02-03T00:31:17;99442.03;;;1.71;100.00
18509;BME280;9383;50.928;12.116;2023-02-03T00:33:44;99447.31;;;1.75;100.00
18509;BME280;9383;50.928;12.116;2023-02-03T00:36:11;99439.47;;;1.75;100.00
18509;BME280;9383;50.928;12.116;2023-02-03T00:38:39;99442.09;;;1.77;100.00
18509;BME280;9383;50.928;12.116;2023-02-03T00:41:06;99439.50;;;1.80;100.00
18509;BME280;9383;50.928;12.116;2023-02-03T00:43:32;99429.06;;;1.78;100.00
18509;BME280;9383;50.928;12.116;2023-02-03T00:45:59;99432.53;;;1.79;100.00
18509;BME280;9383;50.928;12.116;2023-02-03T00:48:26;99425.63;;;1.84;100.00
18509;BME280;9383;50.928;12.116;2023-02-03T00:50:52;99423.84;;;1.83;100.00
18509;BME280;9383;50.928;12.116;2023-02-03T00:53:18;99421.28;;;1.86;100.00
18509;BME280;9383;50.928;12.116;2023-02-03T00:55:45;99422.16;;;1.88;100.00
18509;BME280;9383;50.928;12.116;2023-02-03T00:58:11;99408.25;;;1.91;100.00
18509;BME280;9383;50.928;12.116;2023-02-03T01:00:38;99405.66;;;1.97;100.00
18509;BME280;9383;50.928;12.116;2023-02-03T01:03:05;99406.56;;;1.99;100.00
18509;BME280;9383;50.928;12.116;2023-02-03T01:05:31;99404.81;;;2.01;100.00
18509;BME280;9383;50.928;12.116;2023-02-03T01:07:59;99389.16;;;2.03;100.00
18509;BME280;9383;50.928;12.116;2023-02-03T01:10:26;99385.69;;;2.05;100.00
18509;BME280;9383;50.928;12.116;2023-02-03T01:12:52;99381.34;;;2.07;100.00
18509;BME280;9383;50.928;12.116;2023-02-03T01:15:20;99380.50;;;2.11;100.00
18509;BME280;9383;50.928;12.116;2023-02-03T01:17:47;99377.88;;;2.15;100.00
18509;BME280;9383;50.928;12.116;2023-02-03T01:20:15;99380.53;;;2.18;100.00
18509;BME280;9383;50.928;12.116;2023-02-03T01:22:42;99370.97;;;2.21;100.00
18509;BME280;9383;50.928;12.116;2023-02-03T01:25:09;99374.47;;;2.25;100.00
18509;BME280;9383;50.928;12.116;2023-02-03T01:27:37;99371.88;;;2.30;100.00
18509;BME280;9383;50.928;12.116;2023-02-03T01:30:05;99368.41;;;2.34;100.00
18509;BME280;9383;50.928;12.116;2023-02-03T01:32:31;99362.34;;;2.38;100.00
18509;BME280;9383;50.928;12.116;2023-02-03T01:34:58;99361.47;;;2.42;100.00
18509;BME280;9383;50.928;12.116;2023-02-03T01:37:24;99351.06;;;2.48;100.00
18509;BME280;9383;50.928;12.116;2023-02-03T01:39:51;99339.75;;;2.54;100.00
18509;BME280;9383;50.928;12.116;2023-02-03T01:42:18;99334.50;;;2.60;100.00
18509;BME280;9383;50.928;12.116;2023-02-03T01:44:46;99331.94;;;2.66;100.00
18509;BME280;9383;50.928;12.116;2023-02-03T01:47:21;99339.78;;;2.71;100.00
18509;BME280;9383;50.928;12.116;2023-02-03T01:50:20;99328.47;;;2.75;100.00
18509;BME280;9383;50.928;12.116;2023-02-03T01:52:55;99328.47;;;2.81;100.00
18509;BME280;9383;50.928;12.116;2023-02-03T01:55:26;99326.75;;;2.87;100.00
18509;BME280;9383;50.928;12.116;2023-02-03T01:58:10;99327.63;;;2.92;100.00
18509;BME280;9383;50.928;12.116;2023-02-03T02:00:38;99325.91;;;2.95;100.00
18509;BME280;9383;50.928;12.116;2023-02-03T02:03:05;99336.38;;;3.00;100.00
18509;BME280;9383;50.928;12.116;2023-02-03T02:06:19;99329.41;;;3.04;100.00
18509;BME280;9383;50.928;12.116;2023-02-03T02:08:27;99319.78;;;3.07;100.00
18509;BME280;9383;50.928;12.116;2023-02-03T02:10:54;99316.31;;;3.12;100.00
18509;BME280;9383;50.928;12.116;2023-02-03T02:13:21;99308.47;;;3.16;100.00
18509;BME280;9383;50.928;12.116;2023-02-03T02:15:57;99313.72;;;3.19;100.00
18509;BME280;9383;50.928;12.116;2023-02-03T02:18:33;99309.34;;;3.24;100.00
18509;BME280;9383;50.928;12.116;2023-02-03T02:21:22;99299.72;;;3.27;100.00
18509;BME280;9383;50.928;12.116;2023-02-03T02:27:06;99306.75;;;3.35;100.00
18509;BME280;9383;50.928;12.116;2023-02-03T02:30:21;99312.84;;;3.39;100.00
18509;BME280;9383;50.928;12.116;2023-02-03T02:33:02;99310.25;;;3.42;100.00
18509;BME280;9383;50.928;12.116;2023-02-03T02:41:25;99298.88;;;3.56;100.00
18509;BME280;9383;50.928;12.116;2023-02-03T02:44:31;99300.59;;;3.60;100.00
18509;BME280;9383;50.928;12.116;2023-02-03T02:47:07;99296.25;;;3.62;100.00
18509;BME280;9383;50.928;12.116;2023-02-03T02:49:47;99297.13;;;3.65;100.00
18509;BME280;9383;50.928;12.116;2023-02-03T02:52:16;99297.13;;;3.67;100.00
18509;BME280;9383;50.928;12.116;2023-02-03T02:54:48;99289.22;;;3.72;100.00
18509;BME280;9383;50.928;12.116;2023-02-03T02:57:19;99280.50;;;3.74;100.00
18509;BME280;9383;50.928;12.116;2023-02-03T02:59:47;99280.47;;;3.77;100.00
18509;BME280;9383;50.928;12.116;2023-02-03T03:02:14;99290.09;;;3.82;100.00
18509;BME280;9383;50.928;12.116;2023-02-03T03:04:41;99285.72;;;3.84;100.00
18509;BME280;9383;50.928;12.116;2023-02-03T03:07:19;99280.47;;;3.87;100.00
18509;BME280;9383;50.928;12.116;2023-02-03T03:09:50;99290.06;;;3.91;100.00
18509;BME280;9383;50.928;12.116;2023-02-03T03:12:34;99279.59;;;3.94;100.00
18509;BME280;9383;50.928;12.116;2023-02-03T03:15:06;99290.06;;;3.96;100.00
18509;BME280;9383;50.928;12.116;2023-02-03T03:17:36;99276.06;;;3.98;100.00
18509;BME280;9383;50.928;12.116;2023-02-03T03:20:08;99270.84;;;4.00;100.00
18509;BME280;9383;50.928;12.116;2023-02-03T03:22:41;99262.06;;;4.02;100.00
18509;BME280;9383;50.928;12.116;2023-02-03T03:25:15;99262.03;;;4.07;100.00
18509;BME280;9383;50.928;12.116;2023-02-03T03:27:51;99254.16;;;4.10;100.00
18509;BME280;9383;50.928;12.116;2023-02-03T03:30:24;99262.03;;;4.13;100.00
18509;BME280;9383;50.928;12.116;2023-02-03T03:32:52;99245.38;;;4.16;100.00
18509;BME280;9383;50.928;12.116;2023-02-03T03:35:19;99256.78;;;4.16;100.00
18509;BME280;9383;50.928;12.116;2023-02-03T03:38:08;99254.13;;;4.21;100.00
18509;BME280;9383;50.928;12.116;2023-02-03T03:41:07;99252.38;;;4.25;100.00
18509;BME280;9383;50.928;12.116;2023-02-03T03:43:40;99254.09;;;4.27;100.00
18509;BME280;9383;50.928;12.116;2023-02-03T03:46:20;99248.84;;;4.30;100.00
18509;BME280;9383;50.928;12.116;2023-02-03T03:49:18;99232.19;;;4.34;100.00
18509;BME280;9383;50.928;12.116;2023-02-03T03:51:50;99233.94;;;4.37;100.00
18509;BME280;9383;50.928;12.116;2023-02-03T03:54:22;99229.56;;;4.39;100.00
18509;BME280;9383;50.928;12.116;2023-02-03T03:57:11;99226.03;;;4.43;100.00
18509;BME280;9383;50.928;12.116;2023-02-03T03:59:44;99216.38;;;4.45;100.00
18509;BME280;9383;50.928;12.116;2023-02-03T04:02:12;99205.88;;;4.47;100.00
18509;BME280;9383;50.928;12.116;2023-02-03T04:04:40;99198.88;;;4.50;100.00
18509;BME280;9383;50.928;12.116;2023-02-03T04:07:11;99190.97;;;4.54;100.00
18509;BME280;9383;50.928;12.116;2023-02-03T04:09:37;99203.22;;;4.56;100.00
18509;BME280;9383;50.928;12.116;2023-02-03T04:12:05;99186.56;;;4.59;100.00
18509;BME280;9383;50.928;12.116;2023-02-03T04:14:38;99183.94;;;4.60;100.00
18509;BME280;9383;50.928;12.116;2023-02-03T04:17:05;99206.66;;;4.64;100.00
18509;BME280;9383;50.928;12.116;2023-02-03T04:19:31;99193.53;;;4.66;100.00
18509;BME280;9383;50.928;12.116;2023-02-03T04:21:58;99195.25;;;4.69;100.00
18509;BME280;9383;50.928;12.116;2023-02-03T04:24:24;99195.22;;;4.70;100.00
18509;BME280;9383;50.928;12.116;2023-02-03T04:26:51;99211.84;;;4.74;100.00
18509;BME280;9383;50.928;12.116;2023-02-03T04:29:18;99212.69;;;4.76;100.00
18509;BME280;9383;50.928;12.116;2023-02-03T04:31:44;99220.56;;;4.79;100.00
18509;BME280;9383;50.928;12.116;2023-02-03T04:34:12;99235.44;;;4.82;100.00
18509;BME280;9383;50.928;12.116;2023-02-03T04:36:38;99234.56;;;4.81;100.00
18509;BME280;9383;50.928;12.116;2023-02-03T04:39:05;99223.16;;;4.84;100.00
18509;BME280;9383;50.928;12.116;2023-02-03T04:41:31;99210.03;;;4.85;100.00
18509;BME280;9383;50.928;12.116;2023-02-03T04:43:58;99220.50;;;4.88;100.00
18509;BME280;9383;50.928;12.116;2023-02-03T04:46:24;99223.97;;;4.90;100.00
18509;BME280;9383;50.928;12.116;2023-02-03T04:48:51;99227.47;;;4.92;100.00
18509;BME280;9383;50.928;12.116;2023-02-03T04:51:18;99225.72;;;4.95;100.00
18509;BME280;9383;50.928;12.116;2023-02-03T04:53:45;99214.31;;;4.96;100.00
18509;BME280;9383;50.928;12.116;2023-02-03T04:56:11;99204.66;;;4.98;100.00
18509;BME280;9383;50.928;12.116;2023-02-03T04:58:37;99203.78;;;4.99;100.00
18509;BME280;9383;50.928;12.116;2023-02-03T05:01:08;99208.16;;;5.01;100.00
18509;BME280;9383;50.928;12.116;2023-02-03T05:03:35;99201.13;;;5.02;100.00
18509;BME280;9383;50.928;12.116;2023-02-03T05:06:02;99197.59;;;5.03;100.00
18509;BME280;9383;50.928;12.116;2023-02-03T05:08:29;99195.84;;;5.05;100.00
18509;BME280;9383;50.928;12.116;2023-02-03T05:10:56;99192.34;;;5.04;100.00
18509;BME280;9383;50.928;12.116;2023-02-03T05:13:22;99181.84;;;5.04;100.00
18509;BME280;9383;50.928;12.116;2023-02-03T05:15:49;99175.69;;;5.07;100.00
18509;BME280;9383;50.928;12.116;2023-02-03T05:18:16;99179.22;;;5.06;100.00
18509;BME280;9383;50.928;12.116;2023-02-03T05:20:42;99176.56;;;5.09;100.00
18509;BME280;9383;50.928;12.116;2023-02-03T05:23:09;99171.28;;;5.09;100.00
18509;BME280;9383;50.928;12.116;2023-02-03T05:25:35;99151.13;;;5.10;100.00
18509;BME280;9383;50.928;12.116;2023-02-03T05:28:02;99132.72;;;5.10;100.00
18509;BME280;9383;50.928;12.116;2023-02-03T05:30:29;99140.63;;;5.13;100.00
18509;BME280;9383;50.928;12.116;2023-02-03T05:32:55;99145.84;;;5.16;100.00
18509;BME280;9383;50.928;12.116;2023-02-03T05:35:21;99144.94;;;5.15;100.00
18509;BME280;9383;50.928;12.116;2023-02-03T05:37:48;99145.84;;;5.16;100.00
18509;BME280;9383;50.928;12.116;2023-02-03T05:40:15;99142.31;;;5.15;100.00
18509;BME280;9383;50.928;12.116;2023-02-03T05:43:00;99149.31;;;5.18;100.00
18509;BME280;9383;50.928;12.116;2023-02-03T05:45:27;99136.16;;;5.18;100.00
18509;BME280;9383;50.928;12.116;2023-02-03T05:47:53;99135.28;;;5.19;100.00
18509;BME280;9383;50.928;12.116;2023-02-03T05:50:19;99076.09;;;4.81;100.00
18509;BME280;9383;50.928;12.116;2023-02-03T05:52:48;99140.50;;;5.22;100.00
18509;BME280;9383;50.928;12.116;2023-02-03T05:55:15;99130.84;;;5.24;100.00
18509;BME280;9383;50.928;12.116;2023-02-03T05:57:41;99129.06;;;5.28;100.00
18509;BME280;9383;50.928;12.116;2023-02-03T06:00:09;99126.41;;;5.29;100.00
18509;BME280;9383;50.928;12.116;2023-02-03T06:02:36;99131.69;;;5.31;100.00
18509;BME280;9383;50.928;12.116;2023-02-03T06:05:03;99137.78;;;5.33;100.00
18509;BME280;9383;50.928;12.116;2023-02-03T06:07:29;99132.47;;;5.36;100.00
18509;BME280;9383;50.928;12.116;2023-02-03T06:09:56;99137.75;;;5.38;100.00
18509;BME280;9383;50.928;12.116;2023-02-03T06:12:22;99134.22;;;5.35;100.00
18509;BME280;9383;50.928;12.116;2023-02-03T06:14:49;99124.59;;;5.38;100.00
18509;BME280;9383;50.928;12.116;2023-02-03T06:17:16;99125.44;;;5.38;100.00
18509;BME280;9383;50.928;12.116;2023-02-03T06:19:42;99121.94;;;5.39;100.00
18509;BME280;9383;50.928;12.116;2023-02-03T06:22:09;99118.44;;;5.39;100.00
18509;BME280;9383;50.928;12.116;2023-02-03T06:24:35;99116.66;;;5.39;100.00
18509;BME280;9383;50.928;12.116;2023-02-03T06:27:02;99108.81;;;5.38;100.00
18509;BME280;9383;50.928;12.116;2023-02-03T06:29:29;99096.53;;;5.37;100.00
18509;BME280;9383;50.928;12.116;2023-02-03T06:31:56;99103.56;;;5.34;100.00
18509;BME280;9383;50.928;12.116;2023-02-03T06:34:23;99097.47;;;5.34;100.00
18509;BME280;9383;50.928;12.116;2023-02-03T06:36:49;99095.69;;;5.38;100.00
18509;BME280;9383;50.928;12.116;2023-02-03T06:39:16;99100.94;;;5.36;100.00
18509;BME280;9383;50.928;12.116;2023-02-03T06:41:43;99096.56;;;5.33;100.00
18509;BME280;9383;50.928;12.116;2023-02-03T06:44:10;99093.03;;;5.38;100.00
18509;BME280;9383;50.928;12.116;2023-02-03T06:46:36;99076.38;;;5.37;100.00
18509;BME280;9383;50.928;12.116;2023-02-03T06:49:03;99073.75;;;5.37;100.00
18509;BME280;9383;50.928;12.116;2023-02-03T06:51:29;99079.00;;;5.37;100.00
18509;BME280;9383;50.928;12.116;2023-02-03T06:53:56;99071.97;;;5.39;100.00
18509;BME280;9383;50.928;12.116;2023-02-03T06:56:23;99069.34;;;5.39;100.00
18509;BME280;9383;50.928;12.116;2023-02-03T06:58:50;99070.25;;;5.38;100.00
18509;BME280;9383;50.928;12.116;2023-02-03T07:01:17;99074.59;;;5.39;100.00
18509;BME280;9383;50.928;12.116;2023-02-03T07:03:44;99083.38;;;5.40;100.00
18509;BME280;9383;50.928;12.116;2023-02-03T07:06:11;99064.94;;;5.43;100.00
18509;BME280;9383;50.928;12.116;2023-02-03T07:08:38;99064.94;;;5.44;100.00
18509;BME280;9383;50.928;12.116;2023-02-03T07:11:05;99060.50;;;5.46;100.00
18509;BME280;9383;50.928;12.116;2023-02-03T07:13:32;99050.00;;;5.46;100.00
18509;BME280;9383;50.928;12.116;2023-02-03T07:15:58;99046.47;;;5.47;100.00
18509;BME280;9383;50.928;12.116;2023-02-03T07:18:25;99040.31;;;5.48;100.00
18509;BME280;9383;50.928;12.116;2023-02-03T07:20:52;99042.06;;;5.51;100.00
18509;BME280;9383;50.928;12.116;2023-02-03T07:23:19;99046.38;;;5.54;100.00
18509;BME280;9383;50.928;12.116;2023-02-03T07:25:46;99048.13;;;5.55;100.00
18509;BME280;9383;50.928;12.116;2023-02-03T07:28:12;99040.22;;;5.56;100.00
18509;BME280;9383;50.928;12.116;2023-02-03T07:30:38;99047.22;;;5.57;100.00
18509;BME280;9383;50.928;12.116;2023-02-03T07:33:08;99044.53;;;5.60;100.00
18509;BME280;9383;50.928;12.116;2023-02-03T07:35:35;99030.50;;;5.63;100.00
18509;BME280;9383;50.928;12.116;2023-02-03T07:38:02;99028.72;;;5.65;100.00
18509;BME280;9383;50.928;12.116;2023-02-03T07:40:29;99022.53;;;5.68;100.00
18509;BME280;9383;50.928;12.116;2023-02-03T07:43:04;99026.91;;;5.69;100.00
18509;BME280;9383;50.928;12.116;2023-02-03T07:45:34;99038.25;;;5.72;100.00
18509;BME280;9383;50.928;12.116;2023-02-03T07:48:03;99022.47;;;5.72;100.00
18509;BME280;9383;50.928;12.116;2023-02-03T07:50:30;99036.47;;;5.76;100.00
18509;BME280;9383;50.928;12.116;2023-02-03T07:52:59;99028.53;;;5.77;100.00
18509;BME280;9383;50.928;12.116;2023-02-03T07:55:26;99035.50;;;5.82;100.00
18509;BME280;9383;50.928;12.116;2023-02-03T07:57:55;99027.56;;;5.85;100.00
18509;BME280;9383;50.928;12.116;2023-02-03T08:00:23;99030.16;;;5.88;100.00
18509;BME280;9383;50.928;12.116;2023-02-03T08:02:50;99030.09;;;5.91;100.00
18509;BME280;9383;50.928;12.116;2023-02-03T08:05:18;99030.06;;;5.94;100.00
18509;BME280;9383;50.928;12.116;2023-02-03T08:07:46;99033.56;;;5.96;100.00
18509;BME280;9383;50.928;12.116;2023-02-03T08:10:13;99021.25;;;5.98;100.00
18509;BME280;9383;50.928;12.116;2023-02-03T08:12:41;99023.81;;;6.00;100.00
18509;BME280;9383;50.928;12.116;2023-02-03T08:15:10;99014.16;;;6.03;100.00
18509;BME280;9383;50.928;12.116;2023-02-03T08:17:36;99016.75;;;6.07;100.00
18509;BME280;9383;50.928;12.116;2023-02-03T08:20:06;99003.56;;;6.07;100.00
18509;BME280;9383;50.928;12.116;2023-02-03T08:22:33;99005.28;;;6.11;100.00
18509;BME280;9383;50.928;12.116;2023-02-03T08:24:59;99001.72;;;6.15;100.00
18509;BME280;9383;50.928;12.116;2023-02-03T08:27:26;98994.66;;;6.17;100.00
18509;BME280;9383;50.928;12.116;2023-02-03T08:29:53;98974.41;;;6.21;100.00
18509;BME280;9383;50.928;12.116;2023-02-03T08:32:20;98985.78;;;6.23;100.00
18509;BME280;9383;50.928;12.116;2023-02-03T08:34:49;98980.50;;;6.26;100.00
18509;BME280;9383;50.928;12.116;2023-02-03T08:37:18;98969.03;;;6.28;100.00
18509;BME280;9383;50.928;12.116;2023-02-03T08:39:45;98953.22;;;6.30;100.00
18509;BME280;9383;50.928;12.116;2023-02-03T08:42:11;98958.34;;;6.36;100.00
18509;BME280;9383;50.928;12.116;2023-02-03T08:44:38;98950.44;;;6.38;100.00
18509;BME280;9383;50.928;12.116;2023-02-03T08:47:05;98954.78;;;6.40;100.00
18509;BME280;9383;50.928;12.116;2023-02-03T08:49:33;98950.31;;;6.44;100.00
18509;BME280;9383;50.928;12.116;2023-02-03T08:52:01;98945.91;;;6.46;100.00
18509;BME280;9383;50.928;12.116;2023-02-03T08:54:28;98953.75;;;6.49;99.92
18509;BME280;9383;50.928;12.116;2023-02-03T08:56:55;98948.41;;;6.52;99.68
18509;BME280;9383;50.928;12.116;2023-02-03T08:59:21;98939.56;;;6.56;98.40
18509;BME280;9383;50.928;12.116;2023-02-03T09:01:48;98949.16;;;6.60;98.92
18509;BME280;9383;50.928;12.116;2023-02-03T09:04:16;98935.03;;;6.65;98.49
18509;BME280;9383;50.928;12.116;2023-02-03T09:06:47;98933.22;;;6.67;98.54
18509;BME280;9383;50.928;12.116;2023-02-03T09:09:14;98910.34;;;6.69;98.61
18509;BME280;9383;50.928;12.116;2023-02-03T09:11:41;98942.81;;;6.71;98.09
18509;BME280;9383;50.928;12.116;2023-02-03T09:14:08;98930.44;;;6.74;97.67
18509;BME280;9383;50.928;12.116;2023-02-03T09:16:35;98933.88;;;6.78;97.29
18509;BME280;9383;50.928;12.116;2023-02-03T09:19:02;98936.44;;;6.81;96.91
18509;BME280;9383;50.928;12.116;2023-02-03T09:21:29;98924.09;;;6.85;96.85
18509;BME280;9383;50.928;12.116;2023-02-03T09:23:59;98931.06;;;6.89;95.48
18509;BME280;9383;50.928;12.116;2023-02-03T09:26:25;98915.19;;;6.92;95.04
18509;BME280;9383;50.928;12.116;2023-02-03T09:28:54;98929.16;;;6.96;95.49
18509;BME280;9383;50.928;12.116;2023-02-03T09:31:20;98909.75;;;6.98;95.46
18509;BME280;9383;50.928;12.116;2023-02-03T09:33:48;98916.75;;;7.01;95.61
18509;BME280;9383;50.928;12.116;2023-02-03T09:36:15;98922.84;;;7.03;95.36
18509;BME280;9383;50.928;12.116;2023-02-03T09:38:41;98919.31;;;7.04;94.95
18509;BME280;9383;50.928;12.116;2023-02-03T09:41:25;98913.97;;;7.07;94.81
18509;BME280;9383;50.928;12.116;2023-02-03T09:46:42;98912.13;;;7.11;94.18
18509;BME280;9383;50.928;12.116;2023-02-03T09:52:29;98891.84;;;7.14;94.21
18509;BME280;9383;50.928;12.116;2023-02-03T09:57:51;98885.59;;;7.18;93.88
18509;BME280;9383;50.928;12.116;2023-02-03T10:00:26;98894.31;;;7.22;93.80
18509;BME280;9383;50.928;12.116;2023-02-03T10:03:20;98894.31;;;7.24;94.26
18509;BME280;9383;50.928;12.116;2023-02-03T10:06:27;98904.78;;;7.27;93.76
18509;BME280;9383;50.928;12.116;2023-02-03T10:12:22;98896.75;;;7.31;93.82
18509;BME280;9383;50.928;12.116;2023-02-03T10:15:25;98879.13;;;7.34;94.01
18509;BME280;9383;50.928;12.116;2023-02-03T10:18:08;98891.41;;;7.35;93.91
18509;BME280;9383;50.928;12.116;2023-02-03T10:20:39;98899.31;;;7.36;94.88
18509;BME280;9383;50.928;12.116;2023-02-03T10:23:13;98882.53;;;7.39;95.47
18509;BME280;9383;50.928;12.116;2023-02-03T10:25:47;98881.66;;;7.38;96.10
18509;BME280;9383;50.928;12.116;2023-02-03T10:28:25;98873.78;;;7.37;96.68
18509;BME280;9383;50.928;12.116;2023-02-03T10:31:00;98872.03;;;7.37;97.12
18509;BME280;9383;50.928;12.116;2023-02-03T10:33:30;98864.13;;;7.37;96.34
18509;BME280;9383;50.928;12.116;2023-02-03T10:41:20;98834.13;;;7.41;96.04
18509;BME280;9383;50.928;12.116;2023-02-03T10:43:50;98827.09;;;7.42;96.41
18509;BME280;9383;50.928;12.116;2023-02-03T10:46:26;98812.13;;;7.42;96.88
18509;BME280;9383;50.928;12.116;2023-02-03T10:48:53;98805.94;;;7.43;97.89
18509;BME280;9383;50.928;12.116;2023-02-03T10:51:26;98807.66;;;7.44;98.73
18509;BME280;9383;50.928;12.116;2023-02-03T10:53:54;98791.00;;;7.44;99.15
18509;BME280;9383;50.928;12.116;2023-02-03T10:56:26;98793.63;;;7.44;98.46
18509;BME280;9383;50.928;12.116;2023-02-03T10:58:57;98795.34;;;7.46;98.08
18509;BME280;9383;50.928;12.116;2023-02-03T11:01:27;98791.78;;;7.48;98.32
18509;BME280;9383;50.928;12.116;2023-02-03T11:04:04;98781.25;;;7.48;98.04
18509;BME280;9383;50.928;12.116;2023-02-03T11:06:32;98783.81;;;7.49;97.82
18509;BME280;9383;50.928;12.116;2023-02-03T11:09:01;98792.56;;;7.51;98.04
18509;BME280;9383;50.928;12.116;2023-02-03T11:11:30;98779.38;;;7.51;98.23
18509;BME280;9383;50.928;12.116;2023-02-03T11:16:33;98792.63;;;7.50;98.46
18509;BME280;9383;50.928;12.116;2023-02-03T11:19:04;98786.44;;;7.51;98.67
18509;BME280;9383;50.928;12.116;2023-02-03T11:24:18;98803.97;;;7.52;98.59
18509;BME280;9383;50.928;12.116;2023-02-03T11:31:51;98825.91;;;7.54;98.68
18509;BME280;9383;50.928;12.116;2023-02-03T11:34:24;98830.25;;;7.56;98.78
18509;BME280;9383;50.928;12.116;2023-02-03T11:36:53;98838.16;;;7.56;98.88
18509;BME280;9383;50.928;12.116;2023-02-03T11:39:23;98830.19;;;7.58;98.81
18509;BME280;9383;50.928;12.116;2023-02-03T11:41:51;98827.63;;;7.56;99.27
18509;BME280;9383;50.928;12.116;2023-02-03T11:44:24;98803.88;;;7.56;99.62
18509;BME280;9383;50.928;12.116;2023-02-03T11:47:01;98805.59;;;7.57;99.72
18509;BME280;9383;50.928;12.116;2023-02-03T11:49:50;98809.09;;;7.58;99.53
18509;BME280;9383;50.928;12.116;2023-02-03T11:52:40;98806.47;;;7.58;99.69
18509;BME280;9383;50.928;12.116;2023-02-03T11:55:20;98807.34;;;7.58;99.70
18509;BME280;9383;50.928;12.116;2023-02-03T11:58:17;98797.59;;;7.60;99.86
18509;BME280;9383;50.928;12.116;2023-02-03T12:01:10;98773.94;;;7.59;100.00
18509;BME280;9383;50.928;12.116;2023-02-03T12:07:03;98788.00;;;7.58;100.00
18509;BME280;9383;50.928;12.116;2023-02-03T12:09:59;98788.00;;;7.58;100.00
18509;BME280;9383;50.928;12.116;2023-02-03T12:18:40;98775.06;;;7.49;100.00
18509;BME280;9383;50.928;12.116;2023-02-03T12:21:42;98768.91;;;7.48;100.00
18509;BME280;9383;50.928;12.116;2023-02-03T12:24:23;98781.16;;;7.51;100.00
18509;BME280;9383;50.928;12.116;2023-02-03T12:30:02;98780.34;;;7.49;100.00
18509;BME280;9383;50.928;12.116;2023-02-03T12:32:35;98782.09;;;7.48;100.00
18509;BME280;9383;50.928;12.116;2023-02-03T12:35:26;98777.75;;;7.45;100.00
18509;BME280;9383;50.928;12.116;2023-02-03T12:41:02;98767.19;;;7.45;100.00
18509;BME280;9383;50.928;12.116;2023-02-03T12:43:45;98774.22;;;7.46;100.00
18509;BME280;9383;50.928;12.116;2023-02-03T12:46:23;98768.97;;;7.46;100.00
18509;BME280;9383;50.928;12.116;2023-02-03T12:48:56;98767.19;;;7.45;100.00
18509;BME280;9383;50.928;12.116;2023-02-03T12:51:40;98744.38;;;7.44;100.00
18509;BME280;9383;50.928;12.116;2023-02-03T13:02:55;98748.72;;;7.47;100.00
18509;BME280;9383;50.928;12.116;2023-02-03T13:05:47;98742.53;;;7.48;100.00
18509;BME280;9383;50.928;12.116;2023-02-03T13:08:33;98739.03;;;7.48;100.00
18509;BME280;9383;50.928;12.116;2023-02-03T13:11:09;98741.69;;;7.48;100.00
18509;BME280;9383;50.928;12.116;2023-02-03T13:13:44;98725.84;;;7.48;100.00
18509;BME280;9383;50.928;12.116;2023-02-03T13:16:13;98733.75;;;7.48;100.00
18509;BME280;9383;50.928;12.116;2023-02-03T13:18:45;98735.50;;;7.49;100.00
18509;BME280;9383;50.928;12.116;2023-02-03T13:21:13;98738.13;;;7.49;100.00
18509;BME280;9383;50.928;12.116;2023-02-03T13:23:42;98743.31;;;7.52;100.00
18509;BME280;9383;50.928;12.116;2023-02-03T13:32:02;98778.50;;;7.52;100.00
18509;BME280;9383;50.928;12.116;2023-02-03T13:40:12;98790.78;;;7.53;100.00
18509;BME280;9383;50.928;12.116;2023-02-03T13:42:46;98800.47;;;7.51;100.00
18509;BME280;9383;50.928;12.116;2023-02-03T13:45:24;98804.91;;;7.49;100.00
18509;BME280;9383;50.928;12.116;2023-02-03T13:47:56;98810.25;;;7.48;100.00
18509;BME280;9383;50.928;12.116;2023-02-03T13:50:28;98830.50;;;7.45;100.00
18509;BME280;9383;50.928;12.116;2023-02-03T13:53:07;98854.28;;;7.44;100.00
18509;BME280;9383;50.928;12.116;2023-02-03T13:55:42;98861.41;;;7.40;100.00
18509;BME280;9383;50.928;12.116;2023-02-03T13:58:25;98859.69;;;7.38;100.00
18509;BME280;9383;50.928;12.116;2023-02-03T14:03:42;98862.50;;;7.30;100.00
18509;BME280;9383;50.928;12.116;2023-02-03T14:09:19;98852.19;;;7.21;98.84
18509;BME280;9383;50.928;12.116;2023-02-03T14:11:56;98858.41;;;7.18;97.45
18509;BME280;9383;50.928;12.116;2023-02-03T14:17:01;98859.31;;;7.15;96.21
18509;BME280;9383;50.928;12.116;2023-02-03T14:22:03;98856.78;;;7.11;95.43
18509;BME280;9383;50.928;12.116;2023-02-03T14:24:37;98853.31;;;7.09;94.95
18509;BME280;9383;50.928;12.116;2023-02-03T14:29:42;98865.69;;;7.05;94.17
18509;BME280;9383;50.928;12.116;2023-02-03T14:32:10;98875.41;;;7.03;94.37
18509;BME280;9383;50.928;12.116;2023-02-03T14:34:41;98886.84;;;7.02;94.49
18509;BME280;9383;50.928;12.116;2023-02-03T14:37:18;98894.84;;;6.99;93.94
18509;BME280;9383;50.928;12.116;2023-02-03T14:40:02;98891.38;;;6.97;93.85
18509;BME280;9383;50.928;12.116;2023-02-03T14:42:35;98887.00;;;6.94;93.36
18509;BME280;9383;50.928;12.116;2023-02-03T14:48:29;98903.75;;;6.92;93.74
18509;BME280;9383;50.928;12.116;2023-02-03T14:54:33;98913.47;;;6.89;93.21
18509;BME280;9383;50.928;12.116;2023-02-03T15:06:01;98918.81;;;6.85;92.46